SBMN/MAO METAR and TAF weather

Enter ICAO airport designator
Station Type Date Time Source
SBMN METAR 2019/08/25 18:00 UTC NOAA

SBMN 251800Z 08005KT 9999 SCT020 FEW025TCU 33/24 Q1012


Station Type Date Time Source
SBMN Decoded METAR 2019/08/25 18:00 UTC NOAA

Station name not available
Aug 25, 2019 - 02:00 PM EDT / 2019.08.25 1800 UTC
Wind: from the E (080 degrees) at 6 MPH (5 KT):0
Visibility: greater than 7 mile(s):0
Sky conditions: partly cloudy
Weather: Towering cumulus clouds observed
Temperature: 91 F (33 C)
Heat index: 101.5 F (38.6 C):1
Dew Point: 75 F (24 C)
Relative Humidity: 59%
Pressure (altimeter): 29.88 in. Hg (1012 hPa)
ob: SBMN 251800Z 08005KT 9999 SCT020 FEW025TCU 33/24 Q1012
cycle: 18

Station Type Date Time Source
SBMN TAF 2019/08/25 18:21 UTC NOAA

TAF TAF SBMN 251600Z 2518/2606 09005KT 9999 SCT020 FEW025TCU TX32/2518Z TN25/2606Z
BECMG 2522/2524 06003KT CAVOK
BECMG 2603/2605 00000KT
RMK PEH

Example: see airport list